createdAt,value
2022-10-23T00:01:11.041Z,101218.47
2022-10-23T00:03:37.546Z,101210.84
2022-10-23T00:06:05.405Z,101218.00
2022-10-23T00:08:31.925Z,101212.28
2022-10-23T00:10:58.526Z,101215.06
2022-10-23T00:13:25.164Z,101212.78
2022-10-23T00:18:23.390Z,101210.69
2022-10-23T00:20:50.001Z,101205.81
2022-10-23T00:23:17.461Z,101207.75
2022-10-23T00:25:44.104Z,101218.34
2022-10-23T00:28:11.075Z,101229.72
2022-10-23T00:30:37.686Z,101228.25
2022-10-23T00:33:04.525Z,101227.78
2022-10-23T00:35:31.368Z,101227.28
2022-10-23T00:37:58.054Z,101229.22
2022-10-23T00:40:24.577Z,101232.19
2022-10-23T00:42:51.194Z,101228.94
2022-10-23T00:45:31.744Z,101234.44
2022-10-23T00:47:58.345Z,101239.97
2022-10-23T00:50:27.640Z,101233.47
2022-10-23T00:52:57.008Z,101226.00
2022-10-23T00:55:25.478Z,101232.81
2022-10-23T00:57:52.669Z,101228.72
2022-10-23T01:00:23.968Z,101225.63
2022-10-23T01:02:51.325Z,101218.19
2022-10-23T01:05:20.048Z,101214.09
2022-10-23T01:07:52.829Z,101202.25
2022-10-23T01:10:45.498Z,101203.06
2022-10-23T01:13:21.458Z,101201.59
2022-10-23T01:16:08.950Z,101199.97
2022-10-23T01:18:46.556Z,101203.69
2022-10-23T01:21:31.218Z,101213.44
2022-10-23T01:24:20.268Z,101221.59
2022-10-23T01:26:55.786Z,101215.72
2022-10-23T01:29:39.824Z,101215.06
2022-10-23T01:32:11.704Z,101215.22
2022-10-23T01:34:41.126Z,101204.19
2022-10-23T01:37:13.000Z,101201.59
2022-10-23T01:39:47.223Z,101201.91
2022-10-23T01:42:19.860Z,101191.69
2022-10-23T01:45:02.129Z,101188.59
2022-10-23T01:47:32.138Z,101190.53
2022-10-23T01:50:00.062Z,101186.34
2022-10-23T01:52:27.412Z,101186.47
2022-10-23T01:54:59.395Z,101181.63
2022-10-23T01:57:29.117Z,101176.56
2022-10-23T02:00:01.772Z,101174.78
2022-10-23T02:02:30.625Z,101172.19
2022-10-23T02:05:06.621Z,101170.56
2022-10-23T02:07:34.135Z,101167.81
2022-10-23T02:10:01.214Z,101168.63
2022-10-23T02:12:46.027Z,101165.22
2022-10-23T02:15:22.350Z,101167.81
2022-10-23T02:17:54.971Z,101173.81
2022-10-23T02:23:36.151Z,101151.41
2022-10-23T02:26:18.229Z,101146.22
2022-10-23T02:28:56.172Z,101153.19
2022-10-23T02:31:23.820Z,101143.78
2022-10-23T02:33:50.848Z,101140.38
2022-10-23T02:36:19.489Z,101130.63
2022-10-23T02:38:46.522Z,101125.91
2022-10-23T02:41:44.336Z,101124.97
2022-10-23T02:44:29.376Z,101123.31
2022-10-23T02:47:14.588Z,101115.06
2022-10-23T02:50:09.079Z,101112.78
2022-10-23T02:53:02.038Z,101100.59
2022-10-23T02:55:37.022Z,101105.81
2022-10-23T02:58:15.804Z,101105.97
2022-10-23T03:00:48.218Z,101104.34
2022-10-23T03:03:22.326Z,101108.88
2022-10-23T03:05:49.002Z,101112.47
2022-10-23T03:08:15.683Z,101122.03
2022-10-23T03:10:43.171Z,101123.81
2022-10-23T03:13:11.180Z,101116.03
2022-10-23T03:15:37.880Z,101110.84
2022-10-23T03:18:04.649Z,101110.84
2022-10-23T03:20:31.370Z,101111.78
2022-10-23T03:22:57.907Z,101111.78
2022-10-23T03:25:24.443Z,101110.19
2022-10-23T03:27:52.004Z,101098.97
2022-10-23T03:30:18.991Z,101100.94
2022-10-23T03:32:45.853Z,101096.38
2022-10-23T03:35:12.561Z,101101.75
2022-10-23T03:37:39.252Z,101103.84
2022-10-23T03:40:06.541Z,101101.41
2022-10-23T03:42:33.081Z,101099.13
2022-10-23T03:44:59.692Z,101092.34
2022-10-23T03:47:26.300Z,101090.69
2022-10-23T03:49:52.923Z,101089.09
2022-10-23T03:52:19.474Z,101091.84
2022-10-23T03:54:46.219Z,101097.19
2022-10-23T03:57:12.749Z,101096.56
2022-10-23T03:59:39.413Z,101089.72
2022-10-23T04:02:05.991Z,101091.50
2022-10-23T04:04:33.034Z,101089.06
2022-10-23T04:06:59.588Z,101080.63
2022-10-23T04:09:26.352Z,101081.47
2022-10-23T04:11:52.955Z,101075.28
2022-10-23T04:14:19.600Z,101064.91
2022-10-23T04:16:46.135Z,101062.16
2022-10-23T04:19:12.885Z,101065.53
2022-10-23T04:21:39.507Z,101061.16
2022-10-23T04:24:06.500Z,101054.38
2022-10-23T04:26:33.041Z,101051.78
2022-10-23T04:28:59.672Z,101046.59
2022-10-23T04:31:26.892Z,101055.81
2022-10-23T04:33:53.466Z,101053.22
2022-10-23T04:36:20.122Z,101047.88
2022-10-23T04:38:47.873Z,101048.84
2022-10-23T04:41:14.489Z,101058.41
2022-10-23T04:43:41.078Z,101052.41
2022-10-23T04:46:07.926Z,101044.63
2022-10-23T04:48:36.479Z,101046.25
2022-10-23T04:51:05.529Z,101048.84
2022-10-23T04:53:32.720Z,101036.69
2022-10-23T04:55:59.749Z,101027.13
2022-10-23T04:58:28.480Z,101037.31
2022-10-23T05:00:55.934Z,101032.00
2022-10-23T05:03:24.000Z,101029.22
2022-10-23T05:05:54.301Z,101024.84
2022-10-23T05:08:21.487Z,101026.44
2022-10-23T05:10:49.797Z,101028.09
2022-10-23T05:13:19.840Z,101034.88
2022-10-23T05:15:51.484Z,101024.50
2022-10-23T05:18:17.951Z,101015.94
2022-10-23T05:20:46.116Z,101010.06
2022-10-23T05:23:17.959Z,101018.53
2022-10-23T05:25:44.568Z,101020.13
2022-10-23T05:28:11.117Z,101009.75
2022-10-23T05:30:38.569Z,101006.00
2022-10-23T05:33:05.373Z,101011.03
2022-10-23T05:35:32.088Z,101009.25
2022-10-23T05:38:01.752Z,101008.28
2022-10-23T05:40:28.732Z,100997.09
2022-10-23T05:42:55.342Z,100995.31
2022-10-23T05:45:22.187Z,100989.13
2022-10-23T05:47:49.266Z,100985.72
2022-10-23T05:50:16.519Z,100989.94
2022-10-23T05:52:46.638Z,100986.22
2022-10-23T05:55:13.402Z,100985.25
2022-10-23T05:57:40.218Z,100982.47
2022-10-23T06:00:07.650Z,100989.28
2022-10-23T06:02:34.441Z,100987.66
2022-10-23T06:05:01.229Z,100984.06
2022-10-23T06:07:31.311Z,100984.91
2022-10-23T06:10:00.599Z,100978.09
2022-10-23T06:12:27.210Z,100986.53
2022-10-23T06:14:53.826Z,100982.31
2022-10-23T06:17:20.385Z,100989.13
2022-10-23T06:19:47.177Z,100979.56
2022-10-23T06:22:13.791Z,100987.34
2022-10-23T06:24:40.350Z,100996.56
2022-10-23T06:27:07.129Z,100993.97
2022-10-23T06:29:33.725Z,100997.56
2022-10-23T06:32:00.508Z,100999.16
2022-10-23T06:34:27.198Z,100994.97
2022-10-23T06:36:53.891Z,100981.81
2022-10-23T06:39:22.113Z,100982.44
2022-10-23T06:41:48.708Z,100984.91
2022-10-23T06:44:15.285Z,100988.28
2022-10-23T06:46:42.388Z,100992.34
2022-10-23T06:49:08.948Z,100996.56
2022-10-23T06:51:36.493Z,100983.41
2022-10-23T06:54:03.025Z,100987.47
2022-10-23T06:56:30.467Z,100978.69
2022-10-23T06:58:56.967Z,100977.72
2022-10-23T07:01:23.900Z,100980.16
2022-10-23T07:03:50.718Z,100985.81
2022-10-23T07:06:17.593Z,100985.66
2022-10-23T07:08:44.248Z,100981.28
2022-10-23T07:11:12.041Z,100976.56
2022-10-23T07:13:39.719Z,100966.00
2022-10-23T07:16:11.794Z,100952.81
2022-10-23T07:18:38.523Z,100965.66
2022-10-23T07:21:05.204Z,100972.31
2022-10-23T07:23:31.958Z,100965.16
2022-10-23T07:26:16.193Z,100960.59
2022-10-23T07:28:46.420Z,100961.06
2022-10-23T07:31:14.063Z,100961.56
2022-10-23T07:33:40.883Z,100962.03
2022-10-23T07:36:09.065Z,100957.34
2022-10-23T07:38:35.693Z,100953.41
2022-10-23T07:41:02.671Z,100953.72
2022-10-23T07:43:29.631Z,100948.00
2022-10-23T07:45:56.562Z,100945.88
2022-10-23T07:48:23.998Z,100928.97
2022-10-23T07:50:51.265Z,100939.00
2022-10-23T07:53:20.589Z,100935.91
2022-10-23T07:55:54.084Z,100923.38
2022-10-23T07:58:20.679Z,100920.41
2022-10-23T08:00:58.658Z,100930.31
2022-10-23T08:03:27.168Z,100926.41
2022-10-23T08:05:55.324Z,100927.84
2022-10-23T08:08:26.093Z,100930.72
2022-10-23T08:10:54.467Z,100925.00
2022-10-23T08:13:22.263Z,100927.09
2022-10-23T08:15:51.011Z,100926.56
2022-10-23T08:18:17.850Z,100931.88
2022-10-23T08:20:46.998Z,100929.72
2022-10-23T08:23:17.021Z,100924.81
2022-10-23T08:25:44.486Z,100918.13
2022-10-23T08:28:11.360Z,100918.56
2022-10-23T08:30:38.144Z,100910.22
2022-10-23T08:33:05.664Z,100914.09
2022-10-23T08:35:37.557Z,100910.78
2022-10-23T08:38:05.155Z,100900.81
2022-10-23T08:40:32.249Z,100911.50
2022-10-23T08:43:13.440Z,100917.81
2022-10-23T08:45:47.452Z,100914.69
2022-10-23T08:48:23.627Z,100914.94
2022-10-23T08:50:56.053Z,100904.78
2022-10-23T08:53:31.834Z,100899.06
2022-10-23T08:56:12.277Z,100896.13
2022-10-23T08:59:08.202Z,100900.59
2022-10-23T09:01:49.689Z,100894.06
2022-10-23T09:04:17.093Z,100883.09
2022-10-23T09:07:11.615Z,100893.34
2022-10-23T09:09:44.232Z,100881.56
2022-10-23T09:12:18.167Z,100872.38
2022-10-23T09:15:14.855Z,100865.63
2022-10-23T09:17:44.167Z,100867.69
2022-10-23T09:20:19.494Z,100855.28
2022-10-23T09:22:48.564Z,100850.53
2022-10-23T09:25:21.822Z,100845.59
2022-10-23T09:27:54.770Z,100839.81
2022-10-23T09:30:38.323Z,100850.47
2022-10-23T09:33:18.740Z,100856.56
2022-10-23T09:36:00.218Z,100841.19
2022-10-23T09:38:46.680Z,100837.03
2022-10-23T09:41:25.459Z,100833.47
2022-10-23T09:44:27.288Z,100827.69
2022-10-23T09:46:59.432Z,100829.59
2022-10-23T09:49:31.157Z,100828.22
2022-10-23T09:52:22.697Z,100817.22
2022-10-23T09:54:56.240Z,100819.88
2022-10-23T09:57:30.934Z,100822.53
2022-10-23T10:00:03.269Z,100816.56
2022-10-23T10:02:35.581Z,100822.69
2022-10-23T10:05:22.793Z,100820.72
2022-10-23T10:08:21.624Z,100816.16
2022-10-23T10:10:54.077Z,100821.25
2022-10-23T10:13:32.515Z,100820.28
2022-10-23T10:16:19.386Z,100816.91
2022-10-23T10:19:22.838Z,100808.13
2022-10-23T10:22:09.774Z,100815.78
2022-10-23T10:24:56.453Z,100809.16
2022-10-23T10:28:07.795Z,100799.75
2022-10-23T10:31:01.631Z,100800.78
2022-10-23T10:33:46.559Z,100797.78
2022-10-23T10:36:34.394Z,100788.75
2022-10-23T10:39:04.510Z,100784.31
2022-10-23T10:41:58.708Z,100774.09
2022-10-23T10:44:28.230Z,100759.59
2022-10-23T10:47:14.947Z,100752.13
2022-10-23T10:50:23.662Z,100761.41
2022-10-23T10:53:03.393Z,100756.78
2022-10-23T10:55:38.650Z,100770.44
2022-10-23T10:58:12.175Z,100769.25
2022-10-23T11:00:38.869Z,100764.03
2022-10-23T11:03:17.482Z,100750.75
2022-10-23T11:05:46.956Z,100743.34
2022-10-23T11:08:21.902Z,100743.56
2022-10-23T11:10:54.641Z,100734.91
2022-10-23T11:13:34.469Z,100726.50
2022-10-23T11:16:08.886Z,100727.91
2022-10-23T11:18:37.619Z,100712.59
2022-10-23T11:21:22.804Z,100706.00
2022-10-23T11:24:12.543Z,100702.00
2022-10-23T11:26:47.529Z,100686.91
2022-10-23T11:29:41.409Z,100679.50
2022-10-23T11:32:20.568Z,100670.63
2022-10-23T11:34:59.333Z,100667.81
2022-10-23T11:37:26.896Z,100655.34
2022-10-23T11:40:04.883Z,100653.34
2022-10-23T11:42:38.698Z,100651.31
2022-10-23T11:45:30.100Z,100643.88
2022-10-23T11:48:05.396Z,100635.63
2022-10-23T11:50:52.147Z,100632.63
2022-10-23T11:53:27.559Z,100623.56
2022-10-23T11:56:19.542Z,100623.13
2022-10-23T11:58:50.452Z,100616.91
2022-10-23T12:01:19.899Z,100619.13
2022-10-23T12:03:52.606Z,100621.91
2022-10-23T12:06:28.974Z,100613.25
2022-10-23T12:09:02.084Z,100610.03
2022-10-23T12:11:44.398Z,100591.69
2022-10-23T12:14:28.773Z,100593.88
2022-10-23T12:16:56.103Z,100579.72
2022-10-23T12:19:25.480Z,100574.50
2022-10-23T12:21:59.603Z,100569.22
2022-10-23T12:25:00.717Z,100570.19
2022-10-23T12:27:32.329Z,100567.16
2022-10-23T12:30:20.859Z,100554.06
2022-10-23T12:33:23.122Z,100546.22
2022-10-23T12:36:08.197Z,100536.53
2022-10-23T12:38:44.361Z,100514.78
2022-10-23T12:41:13.871Z,100517.41
2022-10-23T12:43:50.330Z,100518.00
2022-10-23T12:46:49.076Z,100516.34
2022-10-23T12:49:21.395Z,100514.72
2022-10-23T12:52:02.359Z,100499.19
2022-10-23T12:54:32.082Z,100499.34
2022-10-23T12:56:58.741Z,100498.72
2022-10-23T12:59:38.615Z,100493.84
2022-10-23T13:02:20.301Z,100471.47
2022-10-23T13:04:49.172Z,100453.47
2022-10-23T13:07:19.562Z,100470.38
2022-10-23T13:09:46.861Z,100472.00
2022-10-23T13:12:41.152Z,100467.34
2022-10-23T13:15:07.661Z,100463.25
2022-10-23T13:17:40.652Z,100466.50
2022-10-23T13:20:16.317Z,100467.06
2022-10-23T13:22:43.245Z,100464.22
2022-10-23T13:25:25.459Z,100468.47
2022-10-23T13:28:03.431Z,100464.59
2022-10-23T13:30:32.640Z,100470.44
2022-10-23T13:32:59.876Z,100463.34
2022-10-23T13:35:27.267Z,100460.72
2022-10-23T13:37:53.926Z,100448.44
2022-10-23T13:40:23.669Z,100456.06
2022-10-23T13:42:51.874Z,100444.59
2022-10-23T13:45:24.050Z,100443.56
2022-10-23T13:47:51.507Z,100443.34
2022-10-23T13:50:19.358Z,100443.94
2022-10-23T13:52:46.351Z,100438.47
2022-10-23T13:55:28.242Z,100436.22
2022-10-23T13:57:54.885Z,100431.56
2022-10-23T14:00:21.913Z,100433.19
2022-10-23T14:02:48.866Z,100437.97
2022-10-23T14:05:15.536Z,100430.91
2022-10-23T14:07:42.388Z,100418.59
2022-10-23T14:10:09.292Z,100420.19
2022-10-23T14:12:43.696Z,100408.69
2022-10-23T14:15:11.480Z,100411.31
2022-10-23T14:17:38.492Z,100415.56
2022-10-23T14:20:06.358Z,100408.47
2022-10-23T14:22:33.334Z,100401.63
2022-10-23T14:24:59.966Z,100401.63
2022-10-23T14:27:26.526Z,100385.91
2022-10-23T14:29:53.267Z,100378.25
2022-10-23T14:32:19.801Z,100367.75
2022-10-23T14:34:51.457Z,100365.13
2022-10-23T14:37:19.831Z,100362.50
2022-10-23T14:39:50.028Z,100359.13
2022-10-23T14:42:17.455Z,100352.25
2022-10-23T14:44:45.008Z,100357.50
2022-10-23T14:47:11.879Z,100351.44
2022-10-23T14:49:40.238Z,100352.50
2022-10-23T14:52:07.335Z,100346.44
2022-10-23T14:54:36.367Z,100339.56
2022-10-23T14:57:03.704Z,100339.56
2022-10-23T14:59:30.641Z,100329.31
2022-10-23T15:01:57.240Z,100334.78
2022-10-23T15:04:23.996Z,100330.56
2022-10-23T15:06:50.569Z,100318.50
2022-10-23T15:09:19.553Z,100314.25
2022-10-23T15:11:46.710Z,100313.69
2022-10-23T15:14:14.355Z,100312.06
2022-10-23T15:16:43.735Z,100309.66
2022-10-23T15:19:15.166Z,100301.22
2022-10-23T15:21:45.247Z,100303.28
2022-10-23T15:24:11.902Z,100302.47
2022-10-23T15:26:39.558Z,100293.00
2022-10-23T15:29:06.654Z,100293.81
2022-10-23T15:31:44.502Z,100292.41
2022-10-23T15:34:14.819Z,100293.66
2022-10-23T15:36:42.621Z,100291.25
2022-10-23T15:39:10.451Z,100282.81
2022-10-23T15:41:39.486Z,100281.44
2022-10-23T15:44:07.208Z,100281.06
2022-10-23T15:46:34.461Z,100287.56
2022-10-23T15:49:01.154Z,100289.81
2022-10-23T15:51:27.910Z,100276.94
2022-10-23T15:53:57.163Z,100275.56
2022-10-23T15:56:25.069Z,100272.34
2022-10-23T15:58:52.114Z,100267.53
2022-10-23T16:01:18.919Z,100266.75
2022-10-23T16:03:45.799Z,100270.59
2022-10-23T16:06:14.250Z,100271.63
2022-10-23T16:08:43.972Z,100270.00
2022-10-23T16:11:20.259Z,100272.88
2022-10-23T16:13:50.221Z,100279.91
2022-10-23T16:16:17.696Z,100281.72
2022-10-23T16:18:45.215Z,100292.19
2022-10-23T16:21:29.476Z,100294.81
2022-10-23T16:23:58.128Z,100293.25
2022-10-23T16:26:25.935Z,100297.09
2022-10-23T16:28:57.767Z,100302.75
2022-10-23T16:31:25.859Z,100300.56
2022-10-23T16:33:53.453Z,100297.78
2022-10-23T16:36:21.334Z,100299.81
2022-10-23T16:38:47.988Z,100290.19
2022-10-23T16:41:14.593Z,100296.88
2022-10-23T16:43:41.412Z,100298.34
2022-10-23T16:46:13.245Z,100293.75
2022-10-23T16:48:42.034Z,100287.94
2022-10-23T16:51:19.931Z,100280.28
2022-10-23T16:53:47.601Z,100283.69
2022-10-23T16:56:18.876Z,100268.22
2022-10-23T16:58:45.934Z,100252.28
2022-10-23T17:01:25.250Z,100241.81
2022-10-23T17:03:53.291Z,100232.97
2022-10-23T17:06:23.239Z,100232.31
2022-10-23T17:08:50.292Z,100229.25
2022-10-23T17:11:20.367Z,100230.41
2022-10-23T17:13:52.363Z,100233.97
2022-10-23T17:16:23.727Z,100224.25
2022-10-23T17:18:51.052Z,100207.66
2022-10-23T17:21:19.809Z,100185.84
2022-10-23T17:23:47.338Z,100158.53
2022-10-23T17:26:17.341Z,100151.63
2022-10-23T17:28:44.361Z,100152.91
2022-10-23T17:31:22.810Z,100173.63
2022-10-23T17:33:52.475Z,100185.72
2022-10-23T17:36:22.461Z,100200.44
2022-10-23T17:38:50.575Z,100208.88
2022-10-23T17:41:19.417Z,100224.03
2022-10-23T17:43:46.868Z,100246.00
2022-10-23T17:46:14.475Z,100254.22
2022-10-23T17:48:43.572Z,100253.63
2022-10-23T17:51:19.244Z,100270.81
2022-10-23T17:53:48.010Z,100280.72
2022-10-23T17:56:19.183Z,100289.00
2022-10-23T17:58:46.940Z,100292.84
2022-10-23T18:01:16.654Z,100283.84
2022-10-23T18:03:43.658Z,100282.25
2022-10-23T18:06:16.003Z,100285.31
2022-10-23T18:08:44.162Z,100294.41
2022-10-23T18:11:18.540Z,100277.28
2022-10-23T18:13:46.420Z,100270.91
2022-10-23T18:16:13.915Z,100270.31
2022-10-23T18:18:41.940Z,100259.28
2022-10-23T18:21:09.992Z,100259.28
2022-10-23T18:23:37.595Z,100249.78
2022-10-23T18:26:05.580Z,100251.59
2022-10-23T18:28:32.710Z,100241.34
2022-10-23T18:30:59.341Z,100248.19
2022-10-23T18:33:26.592Z,100247.41
2022-10-23T18:35:53.246Z,100243.97
2022-10-23T18:38:19.788Z,100246.03
2022-10-23T18:40:46.348Z,100231.50
2022-10-23T18:43:15.103Z,100231.75
2022-10-23T18:45:46.842Z,100237.97
2022-10-23T18:48:13.682Z,100242.63
2022-10-23T18:50:40.350Z,100237.81
2022-10-23T18:53:07.595Z,100237.25
2022-10-23T18:58:05.597Z,100224.72
2022-10-23T19:00:32.299Z,100231.34
2022-10-23T19:02:58.870Z,100236.38
2022-10-23T19:05:25.587Z,100228.75
2022-10-23T19:07:52.544Z,100226.94
2022-10-23T19:10:21.160Z,100216.44
2022-10-23T19:12:47.986Z,100216.22
2022-10-23T19:15:15.012Z,100211.56
2022-10-23T19:17:41.666Z,100214.19
2022-10-23T19:20:12.535Z,100203.38
2022-10-23T19:22:41.116Z,100212.22
2022-10-23T19:25:18.830Z,100200.38
2022-10-23T19:27:47.813Z,100202.22
2022-10-23T19:30:20.579Z,100200.38
2022-10-23T19:32:49.936Z,100190.13
2022-10-23T19:35:18.620Z,100204.22
2022-10-23T19:37:45.734Z,100195.34
2022-10-23T19:40:14.354Z,100200.00
2022-10-23T19:42:42.732Z,100199.63
2022-10-23T19:45:12.933Z,100197.47
2022-10-23T19:47:40.147Z,100192.66
2022-10-23T19:50:08.124Z,100189.47
2022-10-23T19:52:35.057Z,100176.00
2022-10-23T19:55:03.226Z,100184.06
2022-10-23T19:57:33.844Z,100180.31
2022-10-23T20:00:02.101Z,100186.13
2022-10-23T20:02:29.222Z,100180.06
2022-10-23T20:04:56.095Z,100191.34
2022-10-23T20:07:23.494Z,100181.09
2022-10-23T20:09:50.200Z,100185.75
2022-10-23T20:12:16.836Z,100198.41
2022-10-23T20:14:43.887Z,100212.28
2022-10-23T20:17:10.411Z,100212.28
2022-10-23T20:19:37.243Z,100205.25
2022-10-23T20:22:03.862Z,100216.06
2022-10-23T20:24:30.578Z,100240.00
2022-10-23T20:26:57.267Z,100232.75
2022-10-23T20:29:24.963Z,100241.41
2022-10-23T20:31:51.905Z,100258.91
2022-10-23T20:34:19.191Z,100257.28
2022-10-23T20:36:48.485Z,100254.09
2022-10-23T20:39:19.033Z,100249.28
2022-10-23T20:41:46.477Z,100254.16
2022-10-23T20:46:43.818Z,100259.25
2022-10-23T20:49:11.899Z,100259.47
2022-10-23T20:51:38.809Z,100249.22
2022-10-23T20:54:05.781Z,100248.19
2022-10-23T20:56:35.170Z,100240.56
2022-10-23T20:59:10.541Z,100250.44
2022-10-23T21:01:43.429Z,100264.31
2022-10-23T21:04:14.249Z,100245.41
2022-10-23T21:06:57.769Z,100249.06
2022-10-23T21:09:31.292Z,100229.94
2022-10-23T21:11:57.910Z,100244.84
2022-10-23T21:14:24.550Z,100249.47
2022-10-23T21:16:51.155Z,100243.66
2022-10-23T21:19:17.793Z,100248.09
2022-10-23T21:21:44.571Z,100254.13
2022-10-23T21:24:14.834Z,100257.97
2022-10-23T21:26:42.192Z,100252.16
2022-10-23T21:29:24.277Z,100254.38
2022-10-23T21:32:01.089Z,100269.72
2022-10-23T21:34:28.890Z,100279.78
2022-10-23T21:39:43.998Z,100263.75
2022-10-23T21:42:12.190Z,100251.66
2022-10-23T21:44:38.794Z,100259.94
2022-10-23T21:47:05.524Z,100255.94
2022-10-23T21:49:32.317Z,100257.34
2022-10-23T21:51:58.943Z,100263.75
2022-10-23T21:54:25.643Z,100263.31
2022-10-23T21:56:56.104Z,100259.47
2022-10-23T21:59:27.662Z,100267.91
2022-10-23T22:01:56.886Z,100253.81
2022-10-23T22:04:23.619Z,100242.53
2022-10-23T22:06:50.565Z,100245.31
2022-10-23T22:09:19.561Z,100248.31
2022-10-23T22:11:47.989Z,100244.47
2022-10-23T22:14:14.563Z,100254.94
2022-10-23T22:16:42.194Z,100248.31
2022-10-23T22:19:11.732Z,100247.72
2022-10-23T22:21:39.051Z,100257.63
2022-10-23T22:24:06.459Z,100261.47
2022-10-23T22:26:36.055Z,100261.28
2022-10-23T22:29:07.107Z,100262.13
2022-10-23T22:31:34.901Z,100247.06
2022-10-23T22:34:13.170Z,100260.78
2022-10-23T22:36:49.315Z,100261.22
2022-10-23T22:39:16.066Z,100265.88
2022-10-23T22:41:45.560Z,100262.88
2022-10-23T22:44:12.233Z,100271.34
2022-10-23T22:46:38.926Z,100263.72
2022-10-23T22:51:37.590Z,100280.63
2022-10-23T22:54:04.264Z,100275.41
2022-10-23T22:56:31.412Z,100263.31
2022-10-23T22:58:58.420Z,100258.69
2022-10-23T23:01:26.976Z,100259.88
2022-10-23T23:03:54.172Z,100278.56
2022-10-23T23:06:21.655Z,100295.66
2022-10-23T23:08:49.843Z,100279.72
2022-10-23T23:11:19.014Z,100297.63
2022-10-23T23:13:46.203Z,100286.94
2022-10-23T23:16:28.132Z,100284.91
2022-10-23T23:18:56.351Z,100293.56
2022-10-23T23:21:24.049Z,100301.22
2022-10-23T23:23:50.667Z,100309.84
2022-10-23T23:26:17.458Z,100306.44
2022-10-23T23:28:45.348Z,100302.81
2022-10-23T23:31:24.337Z,100308.84
2022-10-23T23:33:51.705Z,100309.06
2022-10-23T23:36:21.539Z,100309.06
2022-10-23T23:38:48.215Z,100305.63
2022-10-23T23:41:16.737Z,100298.78
2022-10-23T23:43:44.325Z,100293.78
2022-10-23T23:46:11.402Z,100296.41
2022-10-23T23:48:38.432Z,100294.00
2022-10-23T23:51:05.688Z,100286.94
2022-10-23T23:53:32.549Z,100275.91
2022-10-23T23:55:59.509Z,100277.13
2022-10-23T23:58:26.107Z,100269.50
